sensor_id;sensor_type;location;lat;lon;timestamp;temperature;humidity
20915;DHT22;10617;52.032;5.298;2023-12-20T00:00:44;6.70;99.90
20915;DHT22;10617;52.032;5.298;2023-12-20T00:04:46;6.70;99.90
20915;DHT22;10617;52.032;5.298;2023-12-20T00:08:48;6.70;99.90
20915;DHT22;10617;52.032;5.298;2023-12-20T00:12:50;6.60;99.90
20915;DHT22;10617;52.032;5.298;2023-12-20T00:16:51;6.60;99.90
20915;DHT22;10617;52.032;5.298;2023-12-20T00:20:53;6.60;99.90
20915;DHT22;10617;52.032;5.298;2023-12-20T00:24:55;6.50;99.90
20915;DHT22;10617;52.032;5.298;2023-12-20T00:28:56;6.50;99.90
20915;DHT22;10617;52.032;5.298;2023-12-20T00:32:58;6.40;99.90
20915;DHT22;10617;52.032;5.298;2023-12-20T01:12:23;6.10;99.90
20915;DHT22;10617;52.032;5.298;2023-12-20T01:16:25;6.10;99.90
20915;DHT22;10617;52.032;5.298;2023-12-20T01:20:27;6.00;99.90
20915;DHT22;10617;52.032;5.298;2023-12-20T01:24:28;6.00;99.90
20915;DHT22;10617;52.032;5.298;2023-12-20T01:28:30;6.00;99.90
20915;DHT22;10617;52.032;5.298;2023-12-20T01:32:31;6.00;99.90
20915;DHT22;10617;52.032;5.298;2023-12-20T01:36:33;6.10;99.90
20915;DHT22;10617;52.032;5.298;2023-12-20T01:40:35;6.10;99.90
20915;DHT22;10617;52.032;5.298;2023-12-20T01:44:36;6.20;99.90
20915;DHT22;10617;52.032;5.298;2023-12-20T01:48:38;6.20;99.90
20915;DHT22;10617;52.032;5.298;2023-12-20T01:52:41;6.20;99.90
20915;DHT22;10617;52.032;5.298;2023-12-20T01:56:43;6.20;99.90
20915;DHT22;10617;52.032;5.298;2023-12-20T02:00:45;6.20;99.90
20915;DHT22;10617;52.032;5.298;2023-12-20T02:04:47;6.20;99.90
20915;DHT22;10617;52.032;5.298;2023-12-20T02:08:49;6.20;99.90
20915;DHT22;10617;52.032;5.298;2023-12-20T02:12:51;6.20;99.90
20915;DHT22;10617;52.032;5.298;2023-12-20T02:16:53;6.20;99.90
20915;DHT22;10617;52.032;5.298;2023-12-20T02:20:54;6.20;99.90
20915;DHT22;10617;52.032;5.298;2023-12-20T02:24:57;6.20;99.90
20915;DHT22;10617;52.032;5.298;2023-12-20T02:28:59;6.20;99.90
20915;DHT22;10617;52.032;5.298;2023-12-20T02:33:00;6.20;99.90
20915;DHT22;10617;52.032;5.298;2023-12-20T02:37:02;6.30;99.90
20915;DHT22;10617;52.032;5.298;2023-12-20T02:41:04;6.30;99.90
20915;DHT22;10617;52.032;5.298;2023-12-20T02:45:06;6.30;99.90
20915;DHT22;10617;52.032;5.298;2023-12-20T02:49:08;6.30;99.90
20915;DHT22;10617;52.032;5.298;2023-12-20T02:53:09;6.40;99.90
20915;DHT22;10617;52.032;5.298;2023-12-20T02:57:11;6.50;99.90
20915;DHT22;10617;52.032;5.298;2023-12-20T03:01:13;6.50;99.90
20915;DHT22;10617;52.032;5.298;2023-12-20T03:05:15;6.60;99.90
20915;DHT22;10617;52.032;5.298;2023-12-20T03:09:17;6.60;99.90
20915;DHT22;10617;52.032;5.298;2023-12-20T03:13:19;6.60;99.90
20915;DHT22;10617;52.032;5.298;2023-12-20T03:17:21;6.70;99.90
20915;DHT22;10617;52.032;5.298;2023-12-20T03:21:22;6.70;99.90
20915;DHT22;10617;52.032;5.298;2023-12-20T03:25:24;6.70;99.90
20915;DHT22;10617;52.032;5.298;2023-12-20T03:29:26;6.80;99.90
20915;DHT22;10617;52.032;5.298;2023-12-20T03:33:27;6.80;99.90
20915;DHT22;10617;52.032;5.298;2023-12-20T03:37:29;6.90;99.90
20915;DHT22;10617;52.032;5.298;2023-12-20T03:41:31;6.90;99.90
20915;DHT22;10617;52.032;5.298;2023-12-20T03:45:33;7.00;99.90
20915;DHT22;10617;52.032;5.298;2023-12-20T03:49:34;7.00;99.90
20915;DHT22;10617;52.032;5.298;2023-12-20T03:53:39;7.00;99.90
20915;DHT22;10617;52.032;5.298;2023-12-20T03:57:42;7.00;99.90
20915;DHT22;10617;52.032;5.298;2023-12-20T04:01:44;7.00;99.90
20915;DHT22;10617;52.032;5.298;2023-12-20T04:05:48;7.00;99.90
20915;DHT22;10617;52.032;5.298;2023-12-20T04:09:50;7.00;99.90
20915;DHT22;10617;52.032;5.298;2023-12-20T04:13:52;6.90;99.90
20915;DHT22;10617;52.032;5.298;2023-12-20T04:17:54;6.90;99.90
20915;DHT22;10617;52.032;5.298;2023-12-20T04:21:55;6.90;99.90
20915;DHT22;10617;52.032;5.298;2023-12-20T04:25:57;7.00;99.90
20915;DHT22;10617;52.032;5.298;2023-12-20T04:29:59;7.00;99.90
20915;DHT22;10617;52.032;5.298;2023-12-20T04:34:00;7.00;99.90
20915;DHT22;10617;52.032;5.298;2023-12-20T04:38:02;7.10;99.90
20915;DHT22;10617;52.032;5.298;2023-12-20T04:42:04;7.10;99.90
20915;DHT22;10617;52.032;5.298;2023-12-20T04:46:06;7.10;99.90
20915;DHT22;10617;52.032;5.298;2023-12-20T04:50:07;7.20;99.90
20915;DHT22;10617;52.032;5.298;2023-12-20T04:54:09;7.20;99.90
20915;DHT22;10617;52.032;5.298;2023-12-20T04:58:12;7.30;99.90
20915;DHT22;10617;52.032;5.298;2023-12-20T05:02:13;7.30;99.90
20915;DHT22;10617;52.032;5.298;2023-12-20T05:06:15;7.30;99.90
20915;DHT22;10617;52.032;5.298;2023-12-20T05:10:17;7.30;99.90
20915;DHT22;10617;52.032;5.298;2023-12-20T05:14:18;7.30;99.90
20915;DHT22;10617;52.032;5.298;2023-12-20T05:33:31;7.40;99.90
20915;DHT22;10617;52.032;5.298;2023-12-20T05:37:33;7.40;99.90
20915;DHT22;10617;52.032;5.298;2023-12-20T05:41:35;7.40;99.90
20915;DHT22;10617;52.032;5.298;2023-12-20T05:45:37;7.40;99.90
20915;DHT22;10617;52.032;5.298;2023-12-20T05:49:38;7.40;99.90
20915;DHT22;10617;52.032;5.298;2023-12-20T06:13:53;7.40;99.90
20915;DHT22;10617;52.032;5.298;2023-12-20T06:17:55;7.50;99.90
20915;DHT22;10617;52.032;5.298;2023-12-20T06:21:57;7.50;99.90
20915;DHT22;10617;52.032;5.298;2023-12-20T06:25:58;7.50;99.90
20915;DHT22;10617;52.032;5.298;2023-12-20T06:30:00;7.50;99.90
20915;DHT22;10617;52.032;5.298;2023-12-20T06:34:02;7.40;99.90
20915;DHT22;10617;52.032;5.298;2023-12-20T06:38:04;7.50;99.90
20915;DHT22;10617;52.032;5.298;2023-12-20T06:42:06;7.50;99.90
20915;DHT22;10617;52.032;5.298;2023-12-20T06:46:08;7.50;99.90
20915;DHT22;10617;52.032;5.298;2023-12-20T06:50:10;7.50;99.90
20915;DHT22;10617;52.032;5.298;2023-12-20T06:54:12;7.50;99.90
20915;DHT22;10617;52.032;5.298;2023-12-20T06:58:13;7.50;99.90
20915;DHT22;10617;52.032;5.298;2023-12-20T07:02:15;7.50;99.90
20915;DHT22;10617;52.032;5.298;2023-12-20T07:06:17;7.50;99.90
20915;DHT22;10617;52.032;5.298;2023-12-20T07:10:19;7.50;99.90
20915;DHT22;10617;52.032;5.298;2023-12-20T07:14:21;7.60;99.90
20915;DHT22;10617;52.032;5.298;2023-12-20T07:18:23;7.60;99.90
20915;DHT22;10617;52.032;5.298;2023-12-20T07:22:24;7.60;99.90
20915;DHT22;10617;52.032;5.298;2023-12-20T07:26:26;7.60;99.90
20915;DHT22;10617;52.032;5.298;2023-12-20T07:30:28;7.70;99.90
20915;DHT22;10617;52.032;5.298;2023-12-20T07:34:29;7.70;99.90
20915;DHT22;10617;52.032;5.298;2023-12-20T07:38:32;7.70;99.90
20915;DHT22;10617;52.032;5.298;2023-12-20T07:42:33;7.70;99.90
20915;DHT22;10617;52.032;5.298;2023-12-20T07:46:35;7.70;99.90
20915;DHT22;10617;52.032;5.298;2023-12-20T07:50:37;7.80;99.90
20915;DHT22;10617;52.032;5.298;2023-12-20T07:54:39;7.80;99.90
20915;DHT22;10617;52.032;5.298;2023-12-20T07:58:40;7.80;99.90
20915;DHT22;10617;52.032;5.298;2023-12-20T08:02:51;7.80;99.90
20915;DHT22;10617;52.032;5.298;2023-12-20T08:06:52;7.80;99.90
20915;DHT22;10617;52.032;5.298;2023-12-20T08:10:54;7.90;99.90
20915;DHT22;10617;52.032;5.298;2023-12-20T08:14:56;7.90;99.90
20915;DHT22;10617;52.032;5.298;2023-12-20T08:18:58;7.90;99.90
20915;DHT22;10617;52.032;5.298;2023-12-20T08:23:00;7.90;99.90
20915;DHT22;10617;52.032;5.298;2023-12-20T08:27:02;7.90;99.90
20915;DHT22;10617;52.032;5.298;2023-12-20T08:31:03;7.90;99.90
20915;DHT22;10617;52.032;5.298;2023-12-20T08:35:05;8.00;99.90
20915;DHT22;10617;52.032;5.298;2023-12-20T08:39:07;8.00;99.90
20915;DHT22;10617;52.032;5.298;2023-12-20T08:43:09;8.00;99.90
20915;DHT22;10617;52.032;5.298;2023-12-20T08:47:11;8.00;99.90
20915;DHT22;10617;52.032;5.298;2023-12-20T08:51:14;8.00;99.90
20915;DHT22;10617;52.032;5.298;2023-12-20T08:55:16;8.00;99.90
20915;DHT22;10617;52.032;5.298;2023-12-20T08:59:19;8.00;99.90
20915;DHT22;10617;52.032;5.298;2023-12-20T09:03:21;8.10;99.90
20915;DHT22;10617;52.032;5.298;2023-12-20T09:07:23;8.10;99.90
20915;DHT22;10617;52.032;5.298;2023-12-20T09:11:25;8.10;99.90
20915;DHT22;10617;52.032;5.298;2023-12-20T09:15:27;8.10;99.90
20915;DHT22;10617;52.032;5.298;2023-12-20T09:19:29;8.10;99.90
20915;DHT22;10617;52.032;5.298;2023-12-20T09:23:31;8.10;99.90
20915;DHT22;10617;52.032;5.298;2023-12-20T09:27:33;8.10;99.90
20915;DHT22;10617;52.032;5.298;2023-12-20T09:31:36;8.20;99.90
20915;DHT22;10617;52.032;5.298;2023-12-20T09:35:38;8.20;99.90
20915;DHT22;10617;52.032;5.298;2023-12-20T09:39:40;8.30;99.90
20915;DHT22;10617;52.032;5.298;2023-12-20T09:43:42;8.30;99.90
20915;DHT22;10617;52.032;5.298;2023-12-20T09:47:43;8.40;99.90
20915;DHT22;10617;52.032;5.298;2023-12-20T09:51:46;8.40;99.90
20915;DHT22;10617;52.032;5.298;2023-12-20T09:55:48;8.50;99.90
20915;DHT22;10617;52.032;5.298;2023-12-20T09:59:50;8.50;99.90
20915;DHT22;10617;52.032;5.298;2023-12-20T10:03:52;8.60;99.90
20915;DHT22;10617;52.032;5.298;2023-12-20T10:07:56;8.60;99.90
20915;DHT22;10617;52.032;5.298;2023-12-20T10:11:57;8.70;99.90
20915;DHT22;10617;52.032;5.298;2023-12-20T10:15:59;8.70;99.90
20915;DHT22;10617;52.032;5.298;2023-12-20T10:20:02;8.70;99.90
20915;DHT22;10617;52.032;5.298;2023-12-20T10:24:04;8.80;99.90
20915;DHT22;10617;52.032;5.298;2023-12-20T10:28:13;8.80;99.90
20915;DHT22;10617;52.032;5.298;2023-12-20T10:32:25;8.80;99.90
20915;DHT22;10617;52.032;5.298;2023-12-20T10:36:31;8.90;99.90
20915;DHT22;10617;52.032;5.298;2023-12-20T10:40:34;8.90;99.90
20915;DHT22;10617;52.032;5.298;2023-12-20T10:44:36;9.00;99.90
20915;DHT22;10617;52.032;5.298;2023-12-20T10:48:37;9.00;99.90
20915;DHT22;10617;52.032;5.298;2023-12-20T10:52:40;9.00;99.90
20915;DHT22;10617;52.032;5.298;2023-12-20T10:56:42;9.10;99.90
20915;DHT22;10617;52.032;5.298;2023-12-20T11:00:44;9.10;99.90
20915;DHT22;10617;52.032;5.298;2023-12-20T11:04:50;9.10;99.90
20915;DHT22;10617;52.032;5.298;2023-12-20T11:13:14;9.20;99.90
20915;DHT22;10617;52.032;5.298;2023-12-20T11:17:18;9.30;99.90
20915;DHT22;10617;52.032;5.298;2023-12-20T11:21:20;9.30;99.90
20915;DHT22;10617;52.032;5.298;2023-12-20T11:25:22;9.50;99.90
20915;DHT22;10617;52.032;5.298;2023-12-20T11:29:36;9.60;99.90
20915;DHT22;10617;52.032;5.298;2023-12-20T11:33:38;9.60;99.90
20915;DHT22;10617;52.032;5.298;2023-12-20T11:37:41;9.50;99.90
20915;DHT22;10617;52.032;5.298;2023-12-20T11:41:46;9.50;99.90
20915;DHT22;10617;52.032;5.298;2023-12-20T11:45:50;9.50;99.90
20915;DHT22;10617;52.032;5.298;2023-12-20T11:49:53;9.50;99.90
20915;DHT22;10617;52.032;5.298;2023-12-20T11:53:54;9.50;99.90
20915;DHT22;10617;52.032;5.298;2023-12-20T11:57:56;9.50;99.90
20915;DHT22;10617;52.032;5.298;2023-12-20T12:01:58;9.60;99.90
20915;DHT22;10617;52.032;5.298;2023-12-20T12:06:02;9.60;99.90
20915;DHT22;10617;52.032;5.298;2023-12-20T12:10:06;9.60;99.90
20915;DHT22;10617;52.032;5.298;2023-12-20T12:14:09;9.70;99.90
20915;DHT22;10617;52.032;5.298;2023-12-20T12:18:15;9.60;99.90
20915;DHT22;10617;52.032;5.298;2023-12-20T12:22:17;9.60;99.90
20915;DHT22;10617;52.032;5.298;2023-12-20T12:26:20;9.50;99.90
20915;DHT22;10617;52.032;5.298;2023-12-20T12:30:26;9.50;99.90
20915;DHT22;10617;52.032;5.298;2023-12-20T12:34:33;9.50;99.90
20915;DHT22;10617;52.032;5.298;2023-12-20T12:38:38;9.60;99.90
20915;DHT22;10617;52.032;5.298;2023-12-20T12:42:40;9.60;99.90
20915;DHT22;10617;52.032;5.298;2023-12-20T12:46:42;9.70;99.90
20915;DHT22;10617;52.032;5.298;2023-12-20T12:50:45;9.70;99.90
20915;DHT22;10617;52.032;5.298;2023-12-20T12:54:47;9.70;99.90
20915;DHT22;10617;52.032;5.298;2023-12-20T12:58:48;9.70;99.90
20915;DHT22;10617;52.032;5.298;2023-12-20T13:02:50;9.70;99.90
20915;DHT22;10617;52.032;5.298;2023-12-20T13:06:53;9.70;99.90
20915;DHT22;10617;52.032;5.298;2023-12-20T13:10:55;9.70;99.90
20915;DHT22;10617;52.032;5.298;2023-12-20T13:14:57;9.70;99.90
20915;DHT22;10617;52.032;5.298;2023-12-20T13:18:58;9.70;99.90
20915;DHT22;10617;52.032;5.298;2023-12-20T13:23:01;9.70;99.90
20915;DHT22;10617;52.032;5.298;2023-12-20T13:27:03;9.80;99.90
20915;DHT22;10617;52.032;5.298;2023-12-20T13:31:05;9.80;99.90
20915;DHT22;10617;52.032;5.298;2023-12-20T13:35:06;9.80;99.90
20915;DHT22;10617;52.032;5.298;2023-12-20T13:39:08;9.80;99.90
20915;DHT22;10617;52.032;5.298;2023-12-20T13:43:10;9.80;99.90
20915;DHT22;10617;52.032;5.298;2023-12-20T13:47:14;9.80;99.90
20915;DHT22;10617;52.032;5.298;2023-12-20T13:51:15;9.80;99.90
20915;DHT22;10617;52.032;5.298;2023-12-20T13:55:17;9.80;99.90
20915;DHT22;10617;52.032;5.298;2023-12-20T13:59:19;9.80;99.90
20915;DHT22;10617;52.032;5.298;2023-12-20T14:03:21;9.80;99.90
20915;DHT22;10617;52.032;5.298;2023-12-20T14:07:22;9.80;99.90
20915;DHT22;10617;52.032;5.298;2023-12-20T14:11:24;9.80;99.90
20915;DHT22;10617;52.032;5.298;2023-12-20T14:15:26;9.90;99.90
20915;DHT22;10617;52.032;5.298;2023-12-20T14:19:28;9.90;99.90
20915;DHT22;10617;52.032;5.298;2023-12-20T14:23:29;9.80;99.90
20915;DHT22;10617;52.032;5.298;2023-12-20T14:27:31;9.80;99.90
20915;DHT22;10617;52.032;5.298;2023-12-20T14:31:33;9.80;99.90
20915;DHT22;10617;52.032;5.298;2023-12-20T14:35:35;9.80;99.90
20915;DHT22;10617;52.032;5.298;2023-12-20T14:39:36;9.70;99.90
20915;DHT22;10617;52.032;5.298;2023-12-20T14:43:42;9.70;99.90
20915;DHT22;10617;52.032;5.298;2023-12-20T14:47:44;9.70;99.90
20915;DHT22;10617;52.032;5.298;2023-12-20T14:51:46;9.60;99.90
20915;DHT22;10617;52.032;5.298;2023-12-20T14:55:49;9.60;99.90
20915;DHT22;10617;52.032;5.298;2023-12-20T14:59:52;9.50;99.90
20915;DHT22;10617;52.032;5.298;2023-12-20T15:03:53;9.50;99.90
20915;DHT22;10617;52.032;5.298;2023-12-20T15:07:57;9.50;99.90
20915;DHT22;10617;52.032;5.298;2023-12-20T15:11:59;9.40;99.90
20915;DHT22;10617;52.032;5.298;2023-12-20T15:16:01;9.40;99.90
20915;DHT22;10617;52.032;5.298;2023-12-20T15:20:03;9.30;99.90
20915;DHT22;10617;52.032;5.298;2023-12-20T15:24:06;9.40;99.90
20915;DHT22;10617;52.032;5.298;2023-12-20T15:28:14;9.40;99.90
20915;DHT22;10617;52.032;5.298;2023-12-20T15:32:16;9.30;99.90
20915;DHT22;10617;52.032;5.298;2023-12-20T15:36:20;9.30;99.90
20915;DHT22;10617;52.032;5.298;2023-12-20T15:40:22;9.20;99.90
20915;DHT22;10617;52.032;5.298;2023-12-20T15:44:23;9.10;99.90
20915;DHT22;10617;52.032;5.298;2023-12-20T15:48:25;8.90;99.90
20915;DHT22;10617;52.032;5.298;2023-12-20T15:52:30;8.90;99.90
20915;DHT22;10617;52.032;5.298;2023-12-20T15:56:32;8.80;99.90
20915;DHT22;10617;52.032;5.298;2023-12-20T16:00:34;8.80;99.90
20915;DHT22;10617;52.032;5.298;2023-12-20T16:04:36;8.80;99.90
20915;DHT22;10617;52.032;5.298;2023-12-20T16:08:38;8.80;99.90
20915;DHT22;10617;52.032;5.298;2023-12-20T16:12:40;8.80;99.90
20915;DHT22;10617;52.032;5.298;2023-12-20T16:16:41;8.70;99.90
20915;DHT22;10617;52.032;5.298;2023-12-20T16:20:43;8.70;99.90
20915;DHT22;10617;52.032;5.298;2023-12-20T16:24:45;8.70;99.90
20915;DHT22;10617;52.032;5.298;2023-12-20T16:28:47;8.70;99.90
20915;DHT22;10617;52.032;5.298;2023-12-20T16:32:48;8.70;99.90
20915;DHT22;10617;52.032;5.298;2023-12-20T16:36:52;8.70;99.90
20915;DHT22;10617;52.032;5.298;2023-12-20T16:40:55;8.80;99.90
20915;DHT22;10617;52.032;5.298;2023-12-20T16:44:57;8.80;99.90
20915;DHT22;10617;52.032;5.298;2023-12-20T16:48:59;8.80;99.90
20915;DHT22;10617;52.032;5.298;2023-12-20T16:53:00;8.80;99.90
20915;DHT22;10617;52.032;5.298;2023-12-20T16:57:02;8.80;99.90
20915;DHT22;10617;52.032;5.298;2023-12-20T17:01:04;8.80;99.90
20915;DHT22;10617;52.032;5.298;2023-12-20T17:05:07;8.70;99.90
20915;DHT22;10617;52.032;5.298;2023-12-20T17:09:09;8.70;99.90
20915;DHT22;10617;52.032;5.298;2023-12-20T17:13:10;8.70;99.90
20915;DHT22;10617;52.032;5.298;2023-12-20T17:17:12;8.60;99.90
20915;DHT22;10617;52.032;5.298;2023-12-20T17:21:17;8.60;99.90
20915;DHT22;10617;52.032;5.298;2023-12-20T17:25:19;8.60;99.90
20915;DHT22;10617;52.032;5.298;2023-12-20T17:29:21;8.60;99.90
20915;DHT22;10617;52.032;5.298;2023-12-20T17:33:22;8.60;99.90
20915;DHT22;10617;52.032;5.298;2023-12-20T17:37:24;8.60;99.90
20915;DHT22;10617;52.032;5.298;2023-12-20T17:41:26;8.60;99.90
20915;DHT22;10617;52.032;5.298;2023-12-20T17:45:28;8.60;99.90
20915;DHT22;10617;52.032;5.298;2023-12-20T17:49:29;8.60;99.90
20915;DHT22;10617;52.032;5.298;2023-12-20T17:53:32;8.60;99.90
20915;DHT22;10617;52.032;5.298;2023-12-20T17:57:34;8.60;99.90
20915;DHT22;10617;52.032;5.298;2023-12-20T18:01:36;8.60;99.90
20915;DHT22;10617;52.032;5.298;2023-12-20T18:05:38;8.60;99.90
20915;DHT22;10617;52.032;5.298;2023-12-20T18:09:39;8.60;99.90
20915;DHT22;10617;52.032;5.298;2023-12-20T18:13:41;8.60;99.90
20915;DHT22;10617;52.032;5.298;2023-12-20T18:17:43;8.60;99.90
20915;DHT22;10617;52.032;5.298;2023-12-20T18:21:45;8.60;99.90
20915;DHT22;10617;52.032;5.298;2023-12-20T18:25:47;8.60;99.90
20915;DHT22;10617;52.032;5.298;2023-12-20T18:29:50;8.60;99.90
20915;DHT22;10617;52.032;5.298;2023-12-20T18:33:53;8.60;99.90
20915;DHT22;10617;52.032;5.298;2023-12-20T18:37:55;8.60;99.90
20915;DHT22;10617;52.032;5.298;2023-12-20T18:41:56;8.60;99.90
20915;DHT22;10617;52.032;5.298;2023-12-20T18:45:58;8.60;99.90
20915;DHT22;10617;52.032;5.298;2023-12-20T18:50:01;8.60;99.90
20915;DHT22;10617;52.032;5.298;2023-12-20T18:54:04;8.60;99.90
20915;DHT22;10617;52.032;5.298;2023-12-20T18:58:06;8.60;99.90
20915;DHT22;10617;52.032;5.298;2023-12-20T19:02:08;8.60;99.90
20915;DHT22;10617;52.032;5.298;2023-12-20T19:06:10;8.60;99.90
20915;DHT22;10617;52.032;5.298;2023-12-20T19:10:12;8.60;99.90
20915;DHT22;10617;52.032;5.298;2023-12-20T19:14:14;8.60;99.90
20915;DHT22;10617;52.032;5.298;2023-12-20T19:18:16;8.60;99.90
20915;DHT22;10617;52.032;5.298;2023-12-20T19:22:17;8.60;99.90
20915;DHT22;10617;52.032;5.298;2023-12-20T19:26:19;8.60;99.90
20915;DHT22;10617;52.032;5.298;2023-12-20T19:30:21;8.60;99.90
20915;DHT22;10617;52.032;5.298;2023-12-20T19:34:23;8.60;99.90
20915;DHT22;10617;52.032;5.298;2023-12-20T19:38:24;8.60;99.90
20915;DHT22;10617;52.032;5.298;2023-12-20T19:42:26;8.60;99.90
20915;DHT22;10617;52.032;5.298;2023-12-20T19:46:28;8.60;99.90
20915;DHT22;10617;52.032;5.298;2023-12-20T19:50:30;8.70;99.90
20915;DHT22;10617;52.032;5.298;2023-12-20T19:54:32;8.70;99.90
20915;DHT22;10617;52.032;5.298;2023-12-20T19:58:34;8.70;99.90
20915;DHT22;10617;52.032;5.298;2023-12-20T20:02:36;8.70;99.90
20915;DHT22;10617;52.032;5.298;2023-12-20T20:06:39;8.70;99.90
20915;DHT22;10617;52.032;5.298;2023-12-20T20:10:40;8.70;99.90
20915;DHT22;10617;52.032;5.298;2023-12-20T20:14:43;8.70;99.90
20915;DHT22;10617;52.032;5.298;2023-12-20T20:18:45;8.70;99.90
20915;DHT22;10617;52.032;5.298;2023-12-20T20:22:47;8.80;99.90
20915;DHT22;10617;52.032;5.298;2023-12-20T20:26:49;8.80;99.90
20915;DHT22;10617;52.032;5.298;2023-12-20T20:30:50;8.80;99.90
20915;DHT22;10617;52.032;5.298;2023-12-20T20:34:53;8.80;99.90
20915;DHT22;10617;52.032;5.298;2023-12-20T20:38:55;8.80;99.90
20915;DHT22;10617;52.032;5.298;2023-12-20T20:42:56;8.80;99.90
20915;DHT22;10617;52.032;5.298;2023-12-20T20:46:58;8.80;99.90
20915;DHT22;10617;52.032;5.298;2023-12-20T20:51:01;8.90;99.90
20915;DHT22;10617;52.032;5.298;2023-12-20T20:55:03;8.80;99.90
20915;DHT22;10617;52.032;5.298;2023-12-20T20:59:05;8.90;99.90
20915;DHT22;10617;52.032;5.298;2023-12-20T21:03:06;8.90;99.90
20915;DHT22;10617;52.032;5.298;2023-12-20T21:07:09;8.90;99.90
20915;DHT22;10617;52.032;5.298;2023-12-20T21:11:11;8.90;99.90
20915;DHT22;10617;52.032;5.298;2023-12-20T21:15:15;8.90;99.90
20915;DHT22;10617;52.032;5.298;2023-12-20T21:19:17;8.90;99.90
20915;DHT22;10617;52.032;5.298;2023-12-20T21:23:19;8.90;99.90
20915;DHT22;10617;52.032;5.298;2023-12-20T21:27:22;9.00;99.90
20915;DHT22;10617;52.032;5.298;2023-12-20T21:31:24;9.00;99.90
20915;DHT22;10617;52.032;5.298;2023-12-20T21:35:26;9.00;99.90
20915;DHT22;10617;52.032;5.298;2023-12-20T21:39:27;9.00;99.90
20915;DHT22;10617;52.032;5.298;2023-12-20T21:43:31;9.00;99.90
20915;DHT22;10617;52.032;5.298;2023-12-20T21:47:33;9.10;99.90
20915;DHT22;10617;52.032;5.298;2023-12-20T21:51:34;9.10;99.90
20915;DHT22;10617;52.032;5.298;2023-12-20T21:55:37;9.10;99.90
20915;DHT22;10617;52.032;5.298;2023-12-20T21:59:39;9.10;99.90
20915;DHT22;10617;52.032;5.298;2023-12-20T22:03:40;9.10;99.90
20915;DHT22;10617;52.032;5.298;2023-12-20T22:07:42;9.10;99.90
20915;DHT22;10617;52.032;5.298;2023-12-20T22:11:44;9.20;99.90
20915;DHT22;10617;52.032;5.298;2023-12-20T22:15:46;9.20;99.90
20915;DHT22;10617;52.032;5.298;2023-12-20T22:19:47;9.20;99.90
20915;DHT22;10617;52.032;5.298;2023-12-20T22:23:49;9.20;99.90
20915;DHT22;10617;52.032;5.298;2023-12-20T22:27:51;9.30;99.90
20915;DHT22;10617;52.032;5.298;2023-12-20T22:31:53;9.30;99.90
20915;DHT22;10617;52.032;5.298;2023-12-20T22:35:55;9.30;99.90
20915;DHT22;10617;52.032;5.298;2023-12-20T22:39:56;9.30;99.90
20915;DHT22;10617;52.032;5.298;2023-12-20T22:43:58;9.30;99.90
20915;DHT22;10617;52.032;5.298;2023-12-20T22:48:00;9.30;99.90
20915;DHT22;10617;52.032;5.298;2023-12-20T22:52:02;9.30;99.90
20915;DHT22;10617;52.032;5.298;2023-12-20T22:56:04;9.40;99.90
20915;DHT22;10617;52.032;5.298;2023-12-20T23:00:06;9.40;99.90
20915;DHT22;10617;52.032;5.298;2023-12-20T23:04:10;9.40;99.90
20915;DHT22;10617;52.032;5.298;2023-12-20T23:08:12;9.40;99.90
20915;DHT22;10617;52.032;5.298;2023-12-20T23:12:13;9.40;99.90
20915;DHT22;10617;52.032;5.298;2023-12-20T23:16:15;9.40;99.90
20915;DHT22;10617;52.032;5.298;2023-12-20T23:20:17;9.40;99.90
20915;DHT22;10617;52.032;5.298;2023-12-20T23:24:19;9.50;99.90
20915;DHT22;10617;52.032;5.298;2023-12-20T23:28:21;9.40;99.90
20915;DHT22;10617;52.032;5.298;2023-12-20T23:32:23;9.50;99.90
20915;DHT22;10617;52.032;5.298;2023-12-20T23:36:24;9.50;99.90
20915;DHT22;10617;52.032;5.298;2023-12-20T23:40:26;9.50;99.90
20915;DHT22;10617;52.032;5.298;2023-12-20T23:44:30;9.50;99.90
20915;DHT22;10617;52.032;5.298;2023-12-20T23:48:32;9.50;99.90
20915;DHT22;10617;52.032;5.298;2023-12-20T23:52:35;9.50;99.90
20915;DHT22;10617;52.032;5.298;2023-12-20T23:56:37;9.50;99.90
